Hit Tracker is now ESPN Home Run Tracker! Hit Tracker founder Greg Rybarczyk is now collaborating with the ESPN Stats & Information Group to continue tracking all MLB home runs, and helping baseball fans know "How Far It Really Went!™" Please credit any information on this site to ESPN Stats & Information Group. For more information and analysis on home runs, please contact founder Greg Rybarczyk. E-Mail ESPN Home Run Tracker
Main Page | Ballparks | Park Overlays | Glossary | Highlight Homers | Feedback | Bio | 3 Types of HR's | AAA Home Run Derby Last Updated: September 1, 2014, 9:26 pm PST
Welcome to the ESPN Home Run Tracker! Check out the ESPN MLB Scoreboard throughout the 2014 season! Contact us at grybar@hittrackeronline.com.
Season:
Ballpark detail for Marlins Park
Ballpark # of Home Runs HR per game Avg.
True
Distance
Avg.
Speed
Off
Bat
Avg.
Std.
Dist.
Marlins Park 97 1.41 402.3 104.5 400.8

Scatter Plot of Home Runs Marlins Park
 Overlay Ballpark:
Without range rings   With range rings

2014 Season Home Runs for Marlins Park
Click headers to sort
Date Video Path Hitter Hitter
Team
Pitcher Pitcher
Team
INN Ballpark Type/
Luck
True
Dist.
Speed
Off
Bat
Elev.
Angle
Horiz.
Angle
Apex Impact Due To: Std.
Dist.
#
Parks
Wind Temp. ^ Alt.
06/01/14 Video View Gattis, Evan ATL Cishek, Steve MIA 9 Marlins Park JE 411 104.5 23.5 96.5 74 0 0 -1 411 20
05/25/14 Video View Ozuna, Marcell MIA Rodriguez, Francisco MIL 9 Marlins Park PL 406 106.1 34.7 107.6 138 0 0 0 406 30
03/31/14 Video View Ozuna, Marcell MIA De La Rosa, Jorge COL 3 Marlins Park PL 369 102.0 28.1 123.0 74 -2 0 0 371 30
03/31/14 Video View Gonzalez, Carlos COL Fernandez, Jose MIA 6 Marlins Park PL 438 107.6 24.5 85.9 89 -1 0 0 439 29
04/02/14 Video View Stanton, Giancarlo MIA Lyles, Jordan COL 6 Marlins Park PL 414 112.8 21.9 71.3 63 0 0 0 414 30
04/15/14 Video View Walters, Zach WSH Jennings, Dan MIA 9 Marlins Park PL 375 100.5 27.6 66.6 75 0 0 0 374 26
04/19/14 Video View Ozuna, Marcell MIA Elias, Roenis SEA 6 Marlins Park JE 395 108.9 21.5 106.0 58 0 0 0 395 27
04/29/14 Video View Stanton, Giancarlo MIA Wood, Alex ATL 3 Marlins Park JE 391 103.4 25.0 73.6 71 0 0 0 391 26
04/30/14 Video View Yelich, Christian MIA Harang, Aaron ATL 4 Marlins Park JE 400 102.7 25.8 77.4 79 0 0 0 400 27
04/30/14 Video View Upton, Justin ATL Hand, Brad MIA 9 Marlins Park JE/L 383 100.9 26.2 73.4 74 0 0 0 383 22
05/04/14 Video View Stanton, Giancarlo MIA Fife, Stephen LAD 6 Marlins Park ND 427 119.9 20.0 110.1 56 0 0 -1 427 30
05/21/14 Video View Ozuna, Marcell MIA Manship, Jeff PHI 7 Marlins Park ND 428 112.8 23.5 109.0 73 0 0 0 428 30
06/13/14 Video View Polanco, Gregory PIT Dunn, Mike MIA 13 Marlins Park PL 413 107.2 23.8 76.8 73 0 0 0 413 29
06/14/14 Video View McCutchen, Andrew PIT Wolf, Randy MIA 4 Marlins Park PL 421 108.8 24.0 104.4 76 0 0 0 421 30
06/14/14 Video View Ozuna, Marcell MIA Pimentel, Stolmy PIT 9 Marlins Park JE 390 103.6 24.8 73.0 70 0 0 0 390 26
06/17/14 Video View Lake, Junior CHC DeSclafani, Anthony MIA 2 Marlins Park PL 419 107.7 25.0 105.3 79 0 0 0 419 30
06/17/14 Video View Jones, Garrett MIA Schlitter, Brian CHC 7 Marlins Park JE 367 103.5 23.8 65.4 59 0 0 0 367 15
06/18/14 Video View Stanton, Giancarlo MIA Arrieta, Jake CHC 1 Marlins Park JE 419 107.4 22.5 81.8 71 0 0 0 419 28
06/19/14 Video View Wright, David NYM Heaney, Andrew MIA 1 Marlins Park JE 413 103.7 24.5 95.5 80 0 0 0 413 23
06/21/14 Video View Duda, Lucas NYM Hatcher, Chris MIA 9 Marlins Park JE 365 97.5 28.9 68.0 79 0 0 0 364 18
07/30/14 Video View Stanton, Giancarlo MIA Storen, Drew WSH 9 Marlins Park JE 388 102.9 25.3 72.9 72 0 0 0 388 25
07/31/14 Video View Stanton, Giancarlo MIA Cueto, Johnny CIN 1 Marlins Park PL 388 106.6 25.5 119.5 68 0 0 0 388 30
08/01/14 Video View Stanton, Giancarlo MIA Broxton, Jonathan CIN 8 Marlins Park PL 396 107.8 24.3 114.0 67 0 0 0 396 30
08/03/14 Video View Jones, Garrett MIA Hoover, J.J. CIN 8 Marlins Park JE 374 106.8 22.6 64.8 56 0 0 0 373 22
08/15/14 Video View Hill, Aaron ARI Hand, Brad MIA 1 Marlins Park JE 384 100.7 28.0 108.8 83 0 0 0 384 30
08/17/14 Video View Stanton, Giancarlo MIA Collmenter, Josh ARI 1 Marlins Park JE 365 97.6 34.7 112.6 110 0 0 0 365 25
06/01/14 Video View Ozuna, Marcell MIA Harang, Aaron ATL 2 Marlins Park JE 392 103.1 24.7 104.6 71 0 1 0 391 25
05/30/14 Video View Stanton, Giancarlo MIA Teheran, Julio ATL 1 Marlins Park PL 450 109.1 24.2 89.6 91 0 1 0 450 30
04/03/14 Video View Cuddyer, Michael COL Turner, Jacob MIA 3 Marlins Park JE 367 101.0 27.7 120.4 71 0 1 0 366 29
04/04/14 Video View Stanton, Giancarlo MIA Stults, Eric SD 1 Marlins Park ND 484 118.8 25.3 105.2 101 1 1 0 482 30
04/14/14 Video View Moore, Tyler WSH Hand, Brad MIA 2 Marlins Park JE 369 101.4 25.2 67.5 65 0 1 0 369 17
04/14/14 Video View Jones, Garrett MIA Zimmermann, Jordan WSH 6 Marlins Park PL 381 105.2 26.0 59.0 68 0 1 0 380 30
04/14/14 Video View Leon, Sandy WSH Slowey, Kevin MIA 7 Marlins Park JE 373 103.4 25.0 64.0 64 0 1 0 372 25
04/15/14 Video View Stanton, Giancarlo MIA Strasburg, Stephen WSH 1 Marlins Park PL 457 109.1 27.0 89.1 109 0 1 0 456 30
04/16/14 Video View Dietrich, Derek MIA Roark, Tanner WSH 4 Marlins Park PL 438 108.7 26.0 78.8 93 0 1 0 437 29
04/16/14 Video View Werth, Jayson WSH Fernandez, Jose MIA 6 Marlins Park JE 409 102.5 27.0 80.5 89 0 1 0 408 27
04/18/14 Video View Stanton, Giancarlo MIA Medina, Yoervis SEA 9 Marlins Park PL 407 101.5 31.3 99.3 113 0 1 0 405 28
04/29/14 Video View Saltalamacchia, Jarrod MIA Varvaro, Anthony ATL 7 Marlins Park JE 390 104.3 24.2 73.3 67 0 1 0 390 25
04/30/14 Video View Ozuna, Marcell MIA Harang, Aaron ATL 2 Marlins Park JE 388 100.1 27.9 75.1 84 0 1 0 388 25
05/01/14 Video View Gattis, Evan ATL Alvarez, Henderson MIA 6 Marlins Park JE 374 102.0 26.1 115.0 68 0 1 0 373 23
05/03/14 Video View Baker, Jeff MIA Maholm, Paul LAD 2 Marlins Park PL 396 103.3 31.4 113.3 103 0 1 0 395 30
05/03/14 Video View Puig, Yasiel LAD Turner, Jacob MIA 4 Marlins Park ND 452 111.6 25.9 102.2 96 0 1 0 451 30
05/03/14 Video View Mathis, Jeff MIA Maholm, Paul LAD 6 Marlins Park PL 411 102.0 29.6 98.4 105 0 1 0 410 28
05/03/14 Video View Ozuna, Marcell MIA Wilson, Brian LAD 7 Marlins Park PL 404 108.3 25.6 115.5 74 0 1 0 404 30
05/03/14 Video View Crawford, Carl LAD Marmol, Carlos MIA 11 Marlins Park ND 398 105.1 28.5 63.1 85 0 1 0 397 30
05/04/14 Video View Stanton, Giancarlo MIA Fife, Stephen LAD 1 Marlins Park PL 424 106.6 26.7 76.5 91 0 1 0 423 30
05/04/14 Video View Yelich, Christian MIA Fife, Stephen LAD 5 Marlins Park ND 409 104.7 30.1 70.3 102 0 1 0 407 30
05/05/14 Video View Granderson, Curtis NYM Eovaldi, Nathan MIA 1 Marlins Park PL 415 104.2 31.1 76.8 114 0 1 0 413 30
05/21/14 Video View Brown, Domonic PHI Capps, Carter MIA 8 Marlins Park JE 406 101.6 26.3 96.6 85 0 1 0 405 19
05/22/14 Video View Ozuna, Marcell MIA Hamels, Cole PHI 7 Marlins Park PL 419 105.1 30.0 104.4 109 0 1 0 418 30
05/22/14 Video View Byrd, Marlon PHI Dunn, Mike MIA 8 Marlins Park JE 442 106.6 28.7 91.8 114 0 1 0 441 30
05/23/14 Video View Reynolds, Mark MIL Koehler, Tom MIA 5 Marlins Park JE 402 104.9 23.3 101.5 68 2 1 0 400 22
05/23/14 Video View Jones, Garrett MIA Estrada, Marco MIL 5 Marlins Park ND 431 107.7 27.8 72.9 94 4 1 0 425 30
05/23/14 Video View Jones, Garrett MIA Estrada, Marco MIL 7 Marlins Park PL 374 98.5 32.8 60.4 93 8 1 0 364 30
06/13/14 Video View Marte, Starling PIT Eovaldi, Nathan MIA 1 Marlins Park PL 397 102.8 29.0 109.6 91 0 1 0 397 30
06/13/14 Video View Stanton, Giancarlo MIA Locke, Jeff PIT 3 Marlins Park JE 417 104.3 25.7 81.5 86 0 1 0 416 28
06/14/14 Video View Mercer, Jordy PIT Wolf, Randy MIA 2 Marlins Park JE 407 102.3 25.9 97.7 84 0 1 0 407 20
06/14/14 Video View Baker, Jeff MIA Pimentel, Stolmy PIT 9 Marlins Park ND 401 105.7 29.1 117.7 89 0 1 0 400 30
06/16/14 Video View Stanton, Giancarlo MIA Hammel, Jason CHC 1 Marlins Park JE 366 110.7 20.9 54.1 48 0 1 0 365 26
06/16/14 Video View Castro, Starlin CHC Koehler, Tom MIA 6 Marlins Park JE 396 103.4 25.8 106.4 76 0 1 0 395 30
06/18/14 Video View Schierholtz, Nate CHC Eovaldi, Nathan MIA 6 Marlins Park PL 371 100.9 36.1 65.6 124 0 1 0 370 29
06/22/14 Video View Murphy, Daniel NYM DeSclafani, Anthony MIA 4 Marlins Park JE 415 102.4 29.5 83.3 107 0 1 0 414 24
06/29/14 Video View Ozuna, Marcell MIA Milone, Tommy OAK 6 Marlins Park JE 377 98.1 30.5 72.1 93 0 1 0 376 24
07/01/14 Video View Asche, Cody PHI Gregg, Kevin MIA 8 Marlins Park ND 395 106.5 28.1 56.6 79 0 1 0 393 30
07/02/14 Video View Saltalamacchia, Jarrod MIA Hollands, Mario PHI 8 Marlins Park PL 400 101.9 33.6 101.5 126 0 1 0 398 30
07/18/14 Video View Crawford, Brandon SF Eovaldi, Nathan MIA 2 Marlins Park PL 384 100.5 32.9 68.8 108 0 1 0 382 30
07/18/14 Video View Sandoval, Pablo SF Eovaldi, Nathan MIA 5 Marlins Park JE 383 98.8 30.5 73.9 96 0 1 0 382 26
07/18/14 Video View Stanton, Giancarlo MIA Bumgarner, Madison SF 6 Marlins Park ND 466 115.4 21.0 94.1 77 0 1 0 466 30
07/19/14 Video View Stanton, Giancarlo MIA Romo, Sergio SF 9 Marlins Park ND 417 107.1 28.6 111.2 95 0 1 0 416 30
07/20/14 Video View McGehee, Casey MIA Lincecum, Tim SF 1 Marlins Park PL 425 107.0 26.9 104.3 92 0 1 0 425 30
07/30/14 Video View Valdespin, Jordany MIA Roark, Tanner WSH 4 Marlins Park ND 409 106.8 28.6 64.5 90 0 1 0 408 30
08/13/14 Video View Baker, Jeff MIA Siegrist, Kevin STL 9 Marlins Park JE 401 101.7 27.4 102.5 87 0 1 0 399 30
08/15/14 Video View Pennington, Cliff ARI Hand, Brad MIA 1 Marlins Park PL 367 100.2 30.1 123.4 81 0 1 0 366 29
08/17/14 Video View Jones, Garrett MIA Collmenter, Josh ARI 1 Marlins Park PL 400 103.7 27.3 72.0 84 0 1 0 400 30
08/19/14 Video View Ozuna, Marcell MIA Mikolas, Miles TEX 4 Marlins Park ND 434 107.6 29.4 102.9 112 0 1 0 433 30
08/20/14 Video View Ozuna, Marcell MIA Feliz, Neftali TEX 9 Marlins Park PL 398 101.2 30.7 104.9 103 0 1 0 396 30
08/20/14 Video View Saltalamacchia, Jarrod MIA Feliz, Neftali TEX 9 Marlins Park ND 402 104.9 31.3 65.0 104 0 1 0 401 30
09/01/14 Video View Stanton, Giancarlo MIA Wheeler, Zack NYM 1 Marlins Park PL 390 100.3 29.1 106.5 90 0 1 0 388 30
09/01/14 Video View Herrera, Dilson NYM Alvarez, Henderson MIA 3 Marlins Park PL 384 100.2 29.9 110.4 91 0 1 0 383 30
05/23/14 Video View Stanton, Giancarlo MIA Estrada, Marco MIL 1 Marlins Park PL 463 109.2 29.4 93.4 123 7 2 0 454 30
04/06/14 Video View Amarista, Alexi SD Eovaldi, Nathan MIA 7 Marlins Park JE 354 95.9 33.4 61.6 94 0 2 0 352 22
04/16/14 Video View Walters, Zach WSH Dunn, Mike MIA 8 Marlins Park PL 377 102.4 35.6 119.8 119 0 2 0 375 30
04/18/14 Video View Saltalamacchia, Jarrod MIA Young, Chris SEA 3 Marlins Park ND 429 108.9 31.6 71.7 123 0 2 0 427 30
05/01/14 Video View Jones, Garrett MIA Santana, Ervin ATL 2 Marlins Park ND 417 103.3 31.4 73.2 108 11 2 0 404 30
05/01/14 Video View Upton, B.J. ATL Alvarez, Henderson MIA 3 Marlins Park JE 356 96.6 35.6 117.8 108 2 2 0 352 17
05/02/14 Video View Saltalamacchia, Jarrod MIA Beckett, Josh LAD 2 Marlins Park PL 367 100.8 36.9 64.0 127 0 2 0 365 29
05/05/14 Video View Murphy, Daniel NYM Eovaldi, Nathan MIA 1 Marlins Park ND 408 105.3 32.2 65.4 109 5 2 0 402 30
05/20/14 Video View Rollins, Jimmy PHI DeSclafani, Anthony MIA 5 Marlins Park PL 354 96.3 35.6 64.0 109 0 2 0 352 21
05/23/14 Video View Reynolds, Mark MIL Koehler, Tom MIA 4 Marlins Park PL 384 99.6 33.4 111.3 109 5 2 0 377 27
05/23/14 Video View Davis, Khris MIL Hand, Brad MIA 6 Marlins Park ND 448 109.4 30.7 103.8 124 8 2 0 438 30
05/23/14 Video View Stanton, Giancarlo MIA Estrada, Marco MIL 7 Marlins Park ND 444 110.8 29.9 110.3 113 5 2 0 437 30
06/29/14 Video View Freiman, Nate OAK Heaney, Andrew MIA 6 Marlins Park PL 389 100.5 33.5 106.1 117 0 2 0 387 30
07/01/14 Video View Byrd, Marlon PHI Gregg, Kevin MIA 8 Marlins Park PL 427 104.6 30.0 96.6 115 0 2 0 426 30
08/11/14 Video View Stanton, Giancarlo MIA Miller, Shelby STL 1 Marlins Park JE/L 380 98.5 29.1 73.6 86 0 2 0 378 20
08/11/14 Video View Jay, Jon STL Koehler, Tom MIA 4 Marlins Park PL 391 100.9 30.5 70.4 96 0 2 0 388 30
08/11/14 Video View Stanton, Giancarlo MIA Miller, Shelby STL 3 Marlins Park ND 470 113.2 27.4 99.9 114 0 3 0 468 30
08/12/14 Video View Solano, Donovan MIA Wainwright, Adam STL 4 Marlins Park PL 366 99.3 34.9 120.6 107 0 3 0 364 30


About HitTracker | Contact Us
© 2006-2009 HitTrackerOnline